Аэропорт: Могилёв. Могилёв

ICAO: UMOO

METAR:
2019/05/26 13:00
UMOO 261300Z 27005G08MPS 9999 BKN046 16/07 Q1008 NOSIG
METAR:
2016/01/23 06:00
TAF UMOO 230500Z 2306/2315 28005MPS 4000 -SN BR OVC008 
      TEMPO 2306/2315 1200 SN BR BKN005